createdAt,value
2023-03-25T00:02:13.876Z,1.63
2023-03-25T00:05:00.661Z,1.70
2023-03-25T00:07:52.947Z,1.90
2023-03-25T00:10:40.972Z,1.80
2023-03-25T00:13:26.681Z,1.60
2023-03-25T00:16:12.263Z,1.70
2023-03-25T00:19:00.037Z,1.90
2023-03-25T00:21:45.686Z,1.43
2023-03-25T00:24:31.382Z,1.70
2023-03-25T00:27:19.981Z,1.20
2023-03-25T00:30:06.552Z,2.13
2023-03-25T00:32:57.701Z,1.60
2023-03-25T00:35:44.774Z,1.50
2023-03-25T00:38:34.981Z,2.20
2023-03-25T00:41:25.370Z,1.80
2023-03-25T00:44:12.465Z,1.97
2023-03-25T00:46:59.952Z,1.80
2023-03-25T00:49:45.461Z,1.90
2023-03-25T00:52:30.952Z,2.57
2023-03-25T00:55:17.361Z,1.93
2023-03-25T00:58:05.293Z,1.80
2023-03-25T01:00:50.602Z,1.97
2023-03-25T01:03:37.365Z,1.63
2023-03-25T01:06:24.849Z,1.67
2023-03-25T01:09:16.258Z,1.63
2023-03-25T01:12:03.845Z,2.17
2023-03-25T01:14:49.076Z,1.77
2023-03-25T01:17:36.395Z,1.30
2023-03-25T01:20:21.459Z,1.67
2023-03-25T01:23:08.260Z,1.40
2023-03-25T01:25:55.656Z,1.30
2023-03-25T01:28:42.109Z,1.60
2023-03-25T01:31:30.210Z,1.50
2023-03-25T01:34:16.062Z,1.50
2023-03-25T01:37:01.559Z,1.27
2023-03-25T01:39:47.253Z,1.60
2023-03-25T01:42:32.826Z,1.50
2023-03-25T01:45:21.409Z,1.40
2023-03-25T01:48:15.258Z,1.40
2023-03-25T01:51:06.061Z,1.00
2023-03-25T01:53:54.922Z,1.50
2023-03-25T01:56:42.329Z,1.00
2023-03-25T01:59:29.250Z,1.37
2023-03-25T02:02:19.063Z,1.40
2023-03-25T02:05:28.047Z,1.23
2023-03-25T02:08:15.868Z,1.63
2023-03-25T02:11:01.223Z,1.40
2023-03-25T02:13:46.751Z,1.70
2023-03-25T02:16:58.598Z,1.50
2023-03-25T02:20:17.689Z,1.60
2023-03-25T02:23:22.035Z,1.93
2023-03-25T02:26:50.050Z,1.03
2023-03-25T02:30:07.031Z,2.00
2023-03-25T02:33:04.201Z,1.57
2023-03-25T02:36:10.551Z,1.30
2023-03-25T02:39:29.814Z,1.40
2023-03-25T02:42:26.235Z,1.37
2023-03-25T02:45:37.196Z,1.33
2023-03-25T02:48:42.497Z,1.10
2023-03-25T02:51:46.841Z,1.67
2023-03-25T02:54:36.951Z,1.80
2023-03-25T02:57:28.564Z,1.47
2023-03-25T03:00:17.101Z,1.43
2023-03-25T03:03:05.257Z,1.23
2023-03-25T03:05:53.529Z,1.50
2023-03-25T03:08:47.910Z,1.80
2023-03-25T03:12:09.445Z,1.73
2023-03-25T03:15:01.091Z,1.20
2023-03-25T03:18:13.019Z,1.60
2023-03-25T03:21:07.046Z,1.50
2023-03-25T03:24:29.527Z,1.20
2023-03-25T03:27:49.831Z,1.13
2023-03-25T03:30:59.597Z,1.00
2023-03-25T03:33:57.328Z,1.33
2023-03-25T03:36:49.500Z,1.40
2023-03-25T03:39:39.195Z,1.33
2023-03-25T03:42:45.147Z,1.47
2023-03-25T03:45:50.062Z,1.23
2023-03-25T03:48:42.143Z,1.47
2023-03-25T03:51:40.393Z,0.97
2023-03-25T03:54:35.894Z,1.30
2023-03-25T03:57:29.983Z,1.03
2023-03-25T04:00:26.595Z,1.10
2023-03-25T04:03:24.650Z,0.80
2023-03-25T04:06:29.010Z,1.37
2023-03-25T04:09:33.881Z,0.77
2023-03-25T04:12:25.327Z,1.50
2023-03-25T04:15:14.348Z,1.40
2023-03-25T04:18:01.688Z,1.40
2023-03-25T04:20:49.708Z,1.20
2023-03-25T04:23:37.745Z,1.00
2023-03-25T04:26:23.318Z,1.00
2023-03-25T04:29:13.799Z,1.00
2023-03-25T04:32:01.864Z,1.20
2023-03-25T04:34:49.360Z,1.00
2023-03-25T04:37:37.128Z,0.93
2023-03-25T04:40:25.644Z,0.80
2023-03-25T04:43:13.340Z,0.90
2023-03-25T04:46:00.196Z,1.00
2023-03-25T04:48:48.250Z,1.00
2023-03-25T04:51:33.535Z,0.90
2023-03-25T04:54:20.989Z,0.87
2023-03-25T04:57:09.351Z,1.07
2023-03-25T04:59:55.407Z,0.90
2023-03-25T05:02:51.217Z,1.10
2023-03-25T05:05:39.540Z,0.93
2023-03-25T05:08:25.499Z,0.60
2023-03-25T05:11:10.994Z,0.87
2023-03-25T05:13:56.249Z,1.17
2023-03-25T05:16:41.691Z,0.93
2023-03-25T05:19:28.726Z,1.10
2023-03-25T05:22:14.487Z,1.33
2023-03-25T05:25:04.345Z,1.00
2023-03-25T05:27:50.034Z,0.83
2023-03-25T05:30:39.211Z,0.87
2023-03-25T05:33:24.605Z,1.50
2023-03-25T05:36:11.684Z,0.90
2023-03-25T05:38:58.235Z,1.20
2023-03-25T05:41:46.122Z,0.90
2023-03-25T05:44:34.448Z,1.00
2023-03-25T05:47:24.658Z,0.70
2023-03-25T05:50:10.585Z,1.10
2023-03-25T05:52:59.854Z,0.93
2023-03-25T05:55:51.149Z,0.70
2023-03-25T05:58:36.744Z,0.90
2023-03-25T06:01:32.665Z,0.80
2023-03-25T06:04:19.447Z,0.80
2023-03-25T06:07:14.737Z,0.67
2023-03-25T06:10:04.768Z,0.70
2023-03-25T06:12:54.112Z,1.00
2023-03-25T06:15:41.843Z,0.93
2023-03-25T06:18:31.893Z,0.60
2023-03-25T06:21:23.148Z,0.63
2023-03-25T06:24:10.925Z,0.90
2023-03-25T06:26:56.160Z,0.80
2023-03-25T06:29:41.887Z,0.90
2023-03-25T06:32:30.904Z,0.80
2023-03-25T06:35:22.132Z,0.60
2023-03-25T06:38:07.821Z,0.80
2023-03-25T06:40:53.547Z,0.87
2023-03-25T06:43:39.305Z,0.90
2023-03-25T06:46:26.993Z,0.70
2023-03-25T06:49:12.667Z,0.80
2023-03-25T06:51:58.473Z,0.80
2023-03-25T06:54:43.993Z,1.03
2023-03-25T06:57:29.549Z,0.70
2023-03-25T07:00:20.167Z,0.77
2023-03-25T07:03:05.790Z,0.60
2023-03-25T07:05:51.517Z,0.80
2023-03-25T07:08:37.144Z,1.00
2023-03-25T07:11:27.489Z,0.70
2023-03-25T07:14:12.759Z,1.07
2023-03-25T07:17:03.417Z,1.07
2023-03-25T07:19:49.091Z,0.60
2023-03-25T07:22:36.714Z,0.90
2023-03-25T07:25:22.890Z,0.57
2023-03-25T07:28:08.565Z,0.80
2023-03-25T07:30:56.534Z,1.03
2023-03-25T07:33:44.429Z,0.63
2023-03-25T07:36:30.114Z,0.77
2023-03-25T07:39:15.899Z,1.10
2023-03-25T07:42:03.350Z,1.07
2023-03-25T07:44:51.070Z,0.70
2023-03-25T07:47:40.542Z,0.93
2023-03-25T07:50:26.207Z,1.13
2023-03-25T07:53:14.445Z,0.73
2023-03-25T07:56:02.306Z,1.10
2023-03-25T07:58:49.614Z,0.90
2023-03-25T08:01:35.524Z,0.80
2023-03-25T08:04:24.016Z,0.90
2023-03-25T08:07:09.357Z,0.83
2023-03-25T08:09:55.356Z,1.03
2023-03-25T08:12:41.481Z,1.17
2023-03-25T08:15:27.044Z,0.67
2023-03-25T08:18:14.492Z,0.90
2023-03-25T08:20:59.859Z,0.90
2023-03-25T08:23:47.815Z,0.60
2023-03-25T08:26:34.194Z,0.60
2023-03-25T08:29:20.159Z,0.83
2023-03-25T08:32:05.532Z,0.77
2023-03-25T08:34:51.014Z,0.97
2023-03-25T08:37:38.055Z,0.83
2023-03-25T08:40:26.544Z,0.70
2023-03-25T08:43:11.895Z,0.70
2023-03-25T08:45:59.891Z,0.87
2023-03-25T08:48:46.163Z,0.67
2023-03-25T08:51:32.087Z,0.70
2023-03-25T08:54:17.741Z,0.70
2023-03-25T08:57:03.266Z,0.57
2023-03-25T08:59:50.394Z,0.90
2023-03-25T09:02:40.945Z,0.60
2023-03-25T09:05:27.043Z,0.67
2023-03-25T09:08:15.799Z,0.80
2023-03-25T09:11:01.200Z,0.70
2023-03-25T09:13:51.573Z,0.70
2023-03-25T09:16:37.293Z,0.80
2023-03-25T09:19:22.818Z,0.80
2023-03-25T09:22:08.991Z,0.67
2023-03-25T09:24:56.601Z,0.93
2023-03-25T09:27:41.945Z,0.60
2023-03-25T09:30:33.168Z,0.80
2023-03-25T09:33:19.265Z,0.70
2023-03-25T09:36:04.913Z,0.67
2023-03-25T09:38:52.602Z,0.90
2023-03-25T09:41:59.850Z,0.80
2023-03-25T09:44:52.701Z,0.90
2023-03-25T09:47:39.291Z,0.87
2023-03-25T09:50:28.518Z,0.70
2023-03-25T09:53:32.221Z,1.07
2023-03-25T09:56:28.755Z,0.90
2023-03-25T09:59:17.872Z,0.70
2023-03-25T10:02:34.810Z,0.90
2023-03-25T10:05:48.232Z,0.60
2023-03-25T10:08:55.399Z,1.10
2023-03-25T10:11:59.250Z,0.70
2023-03-25T10:15:22.878Z,0.80
2023-03-25T10:18:08.479Z,0.60
2023-03-25T10:21:07.892Z,0.70
2023-03-25T10:24:06.566Z,0.67
2023-03-25T10:27:06.147Z,0.70
2023-03-25T10:30:09.347Z,0.60
2023-03-25T10:33:01.731Z,0.70
2023-03-25T10:35:48.828Z,0.90
2023-03-25T10:38:39.263Z,0.80
2023-03-25T10:41:37.390Z,0.70
2023-03-25T10:44:26.142Z,0.60
2023-03-25T10:47:22.628Z,0.80
2023-03-25T10:50:15.767Z,0.80
2023-03-25T10:53:01.945Z,0.70
2023-03-25T10:55:53.086Z,0.70
2023-03-25T10:58:40.236Z,0.60
2023-03-25T11:01:36.388Z,0.73
2023-03-25T11:04:31.771Z,0.60
2023-03-25T11:07:23.867Z,0.73
2023-03-25T11:10:32.924Z,0.80
2023-03-25T11:13:22.115Z,0.60
2023-03-25T11:16:11.492Z,0.70
2023-03-25T11:19:02.177Z,0.70
2023-03-25T11:22:07.653Z,0.70
2023-03-25T11:25:00.741Z,0.73
2023-03-25T11:27:53.077Z,0.70
2023-03-25T11:31:08.032Z,1.10
2023-03-25T11:34:12.262Z,0.80
2023-03-25T11:37:07.341Z,1.00
2023-03-25T11:39:59.247Z,0.90
2023-03-25T11:42:56.541Z,0.60
2023-03-25T11:45:47.383Z,0.80
2023-03-25T11:48:38.627Z,0.70
2023-03-25T11:51:28.307Z,0.80
2023-03-25T11:54:16.927Z,0.57
2023-03-25T11:57:10.850Z,0.80
2023-03-25T12:00:11.826Z,0.60
2023-03-25T12:03:06.437Z,0.70
2023-03-25T12:05:57.715Z,1.23
2023-03-25T12:09:00.672Z,0.70
2023-03-25T12:12:03.719Z,0.70
2023-03-25T12:15:00.896Z,0.80
2023-03-25T12:18:12.095Z,0.70
2023-03-25T12:21:23.243Z,0.60
2023-03-25T12:24:37.045Z,0.60
2023-03-25T12:28:07.808Z,0.73
2023-03-25T12:31:13.306Z,1.10
2023-03-25T12:34:23.509Z,0.80
2023-03-25T12:37:12.330Z,0.60
2023-03-25T12:40:25.782Z,0.60
2023-03-25T12:43:21.109Z,0.60
2023-03-25T12:46:31.453Z,0.73
2023-03-25T12:49:45.068Z,0.80
2023-03-25T12:52:54.993Z,0.60
2023-03-25T12:56:08.966Z,0.60
2023-03-25T12:59:05.666Z,0.60
2023-03-25T13:02:22.236Z,0.70
2023-03-25T13:05:26.517Z,0.80
2023-03-25T13:08:21.191Z,0.60
2023-03-25T13:11:17.527Z,0.60
2023-03-25T13:14:12.895Z,0.63
2023-03-25T13:17:01.506Z,0.70
2023-03-25T13:19:59.657Z,0.60
2023-03-25T13:22:51.227Z,0.70
2023-03-25T13:25:54.224Z,0.70
2023-03-25T13:28:46.244Z,0.70
2023-03-25T13:31:35.870Z,0.83
2023-03-25T13:34:36.245Z,0.63
2023-03-25T13:37:43.428Z,0.50
2023-03-25T13:40:42.868Z,0.77
2023-03-25T13:43:34.887Z,0.60
2023-03-25T13:46:27.214Z,0.70
2023-03-25T13:49:36.682Z,0.70
2023-03-25T13:52:24.281Z,0.53
2023-03-25T13:55:18.045Z,0.73
2023-03-25T13:58:17.750Z,0.80
2023-03-25T14:01:21.758Z,0.80
2023-03-25T14:04:22.028Z,0.63
2023-03-25T14:07:28.379Z,0.60
2023-03-25T14:11:15.090Z,0.73
2023-03-25T14:14:08.268Z,0.80
2023-03-25T14:17:01.284Z,0.70
2023-03-25T14:19:58.196Z,0.70
2023-03-25T14:22:44.252Z,0.70
2023-03-25T14:25:37.269Z,1.10
2023-03-25T14:28:57.383Z,0.67
2023-03-25T14:32:01.096Z,0.63
2023-03-25T14:34:52.003Z,0.77
2023-03-25T14:37:42.090Z,0.87
2023-03-25T14:40:54.903Z,1.13
2023-03-25T14:43:53.066Z,0.87
2023-03-25T14:46:38.943Z,0.60
2023-03-25T14:49:30.221Z,0.80
2023-03-25T14:52:18.782Z,0.70
2023-03-25T14:55:19.313Z,1.10
2023-03-25T14:58:26.494Z,0.60
2023-03-25T15:01:18.373Z,0.73
2023-03-25T15:04:34.417Z,0.80
2023-03-25T15:07:59.047Z,1.17
2023-03-25T15:10:50.429Z,0.90
2023-03-25T15:13:39.282Z,0.70
2023-03-25T15:16:54.709Z,0.83
2023-03-25T15:20:05.421Z,0.90
2023-03-25T15:23:21.544Z,1.17
2023-03-25T15:26:31.296Z,0.90
2023-03-25T15:29:36.477Z,1.00
2023-03-25T15:32:24.749Z,0.80
2023-03-25T15:35:40.964Z,0.97
2023-03-25T15:38:32.900Z,1.27
2023-03-25T15:41:50.993Z,1.00
2023-03-25T15:44:51.540Z,0.90
2023-03-25T15:48:14.781Z,1.10
2023-03-25T15:51:36.106Z,1.20
2023-03-25T15:54:27.290Z,1.50
2023-03-25T15:57:23.135Z,1.23
2023-03-25T16:00:23.885Z,1.10
2023-03-25T16:03:16.206Z,1.03
2023-03-25T16:06:05.869Z,1.00
2023-03-25T16:08:51.997Z,0.83
2023-03-25T16:11:43.229Z,1.20
2023-03-25T16:14:33.620Z,1.07
2023-03-25T16:17:21.813Z,0.83
2023-03-25T16:20:10.162Z,0.80
2023-03-25T16:22:57.795Z,0.80
2023-03-25T16:25:47.523Z,0.90
2023-03-25T16:28:42.576Z,1.20
2023-03-25T16:31:41.214Z,1.10
2023-03-25T16:34:33.666Z,0.97
2023-03-25T16:37:22.328Z,1.00
2023-03-25T16:40:11.505Z,0.90
2023-03-25T16:43:05.619Z,0.90
2023-03-25T16:45:55.502Z,1.10
2023-03-25T16:48:47.496Z,1.07
2023-03-25T16:51:39.010Z,1.50
2023-03-25T16:55:08.003Z,1.10
2023-03-25T16:57:54.715Z,1.27
2023-03-25T17:00:44.409Z,1.23
2023-03-25T17:03:44.635Z,1.30
2023-03-25T17:06:39.307Z,1.73
2023-03-25T17:09:34.075Z,1.53
2023-03-25T17:12:21.316Z,1.70
2023-03-25T17:15:09.272Z,1.77
2023-03-25T17:18:02.344Z,2.40
2023-03-25T17:20:50.275Z,2.47
2023-03-25T17:23:46.598Z,1.90
2023-03-25T17:26:36.445Z,1.90
2023-03-25T17:29:22.190Z,1.10
2023-03-25T17:32:18.490Z,1.47
2023-03-25T17:35:16.749Z,1.47
2023-03-25T17:38:02.598Z,1.00
2023-03-25T17:41:00.871Z,2.13
2023-03-25T17:43:51.714Z,1.20
2023-03-25T17:46:37.240Z,1.30
2023-03-25T17:49:23.912Z,1.03
2023-03-25T17:52:11.645Z,1.10
2023-03-25T17:54:57.055Z,1.30
2023-03-25T17:57:46.505Z,1.53
2023-03-25T18:00:35.786Z,1.17
2023-03-25T18:03:23.878Z,1.23
2023-03-25T18:06:12.329Z,1.43
2023-03-25T18:08:58.910Z,1.10
2023-03-25T18:11:46.762Z,1.90
2023-03-25T18:14:31.951Z,1.43
2023-03-25T18:17:20.279Z,1.63
2023-03-25T18:20:18.469Z,1.30
2023-03-25T18:23:04.123Z,1.60
2023-03-25T18:25:49.407Z,1.77
2023-03-25T18:28:35.864Z,2.13
2023-03-25T18:31:23.422Z,1.50
2023-03-25T18:34:09.065Z,1.47
2023-03-25T18:36:57.851Z,2.13
2023-03-25T18:39:45.796Z,1.90
2023-03-25T18:42:33.533Z,1.50
2023-03-25T18:45:23.796Z,2.73
2023-03-25T18:48:12.888Z,1.60
2023-03-25T18:50:59.630Z,1.00
2023-03-25T18:53:47.240Z,1.13
2023-03-25T18:56:32.660Z,1.30
2023-03-25T18:59:21.939Z,1.50
2023-03-25T19:02:07.618Z,1.23
2023-03-25T19:05:00.782Z,1.10
2023-03-25T19:07:56.114Z,1.03
2023-03-25T19:10:41.878Z,0.70
2023-03-25T19:13:27.364Z,0.93
2023-03-25T19:16:12.675Z,1.27
2023-03-25T19:19:00.924Z,1.33
2023-03-25T19:21:50.255Z,1.40
2023-03-25T19:24:36.381Z,1.00
2023-03-25T19:27:21.778Z,1.00
2023-03-25T19:30:08.987Z,0.90
2023-03-25T19:32:54.759Z,1.30
2023-03-25T19:35:42.883Z,0.90
2023-03-25T19:38:28.682Z,0.70
2023-03-25T19:41:16.432Z,1.00
2023-03-25T19:44:02.092Z,0.87
2023-03-25T19:46:47.576Z,0.70
2023-03-25T19:49:39.839Z,0.83
2023-03-25T19:52:28.323Z,0.87
2023-03-25T19:55:14.603Z,1.03
2023-03-25T19:58:00.009Z,0.87
2023-03-25T20:00:45.685Z,0.87
2023-03-25T20:03:32.809Z,0.97
2023-03-25T20:06:18.610Z,1.10
2023-03-25T20:09:05.545Z,0.60
2023-03-25T20:11:51.471Z,0.80
2023-03-25T20:14:37.612Z,0.90
2023-03-25T20:17:23.898Z,0.97
2023-03-25T20:20:11.928Z,1.00
2023-03-25T20:22:58.057Z,1.10
2023-03-25T20:25:43.774Z,0.93
2023-03-25T20:28:31.767Z,1.23
2023-03-25T20:31:23.037Z,0.77
2023-03-25T20:34:10.926Z,1.03
2023-03-25T20:36:56.636Z,0.90
2023-03-25T20:39:42.727Z,0.90
2023-03-25T20:42:28.349Z,0.60
2023-03-25T20:45:15.739Z,1.37
2023-03-25T20:48:01.675Z,0.87
2023-03-25T20:50:47.529Z,0.80
2023-03-25T20:53:33.882Z,1.10
2023-03-25T20:56:25.366Z,0.93
2023-03-25T20:59:17.958Z,0.90
2023-03-25T21:02:04.003Z,1.00
2023-03-25T21:04:55.043Z,0.77
2023-03-25T21:07:41.245Z,0.70
2023-03-25T21:10:29.848Z,0.80
2023-03-25T21:13:16.434Z,0.80
2023-03-25T21:16:02.483Z,1.20
2023-03-25T21:18:53.671Z,0.90
2023-03-25T21:21:39.253Z,0.80
2023-03-25T21:24:24.841Z,0.93
2023-03-25T21:27:09.922Z,0.70
2023-03-25T21:29:58.551Z,1.10
2023-03-25T21:32:43.956Z,0.87
2023-03-25T21:35:33.936Z,1.30
2023-03-25T21:38:29.515Z,0.73
2023-03-25T21:41:15.049Z,1.10
2023-03-25T21:44:00.691Z,0.90
2023-03-25T21:46:45.982Z,1.00
2023-03-25T21:49:32.308Z,1.40
2023-03-25T21:52:18.266Z,0.90
2023-03-25T21:55:04.063Z,1.17
2023-03-25T21:57:49.930Z,1.07
2023-03-25T22:00:41.458Z,1.20
2023-03-25T22:03:35.265Z,0.87
2023-03-25T22:06:29.296Z,1.20
2023-03-25T22:09:14.592Z,1.10
2023-03-25T22:12:00.077Z,1.00
2023-03-25T22:14:45.856Z,1.00
2023-03-25T22:17:31.343Z,1.00
2023-03-25T22:20:17.004Z,1.30
2023-03-25T22:23:03.132Z,1.87
2023-03-25T22:25:52.498Z,1.23
2023-03-25T22:28:39.557Z,1.00
2023-03-25T22:31:31.063Z,0.97
2023-03-25T22:34:18.868Z,1.40
2023-03-25T22:37:04.493Z,1.10
2023-03-25T22:39:50.391Z,1.23
2023-03-25T22:42:37.930Z,1.40
2023-03-25T22:45:23.397Z,1.00
2023-03-25T22:48:09.043Z,1.30
2023-03-25T22:50:59.589Z,1.03
2023-03-25T22:53:45.351Z,1.27
2023-03-25T22:56:33.872Z,1.10
2023-03-25T22:59:21.845Z,1.13
2023-03-25T23:02:07.750Z,1.50
2023-03-25T23:04:56.097Z,0.97
2023-03-25T23:07:41.576Z,1.07
2023-03-25T23:10:26.998Z,0.90
2023-03-25T23:13:12.529Z,1.13
2023-03-25T23:16:04.961Z,1.13
2023-03-25T23:18:50.949Z,1.47
2023-03-25T23:21:36.429Z,0.90
2023-03-25T23:24:24.438Z,1.00
2023-03-25T23:27:11.554Z,1.30
2023-03-25T23:29:59.436Z,1.33
2023-03-25T23:32:47.270Z,1.20
2023-03-25T23:35:32.784Z,1.17
2023-03-25T23:38:21.838Z,1.33
2023-03-25T23:41:14.974Z,1.50
2023-03-25T23:44:02.468Z,1.77
2023-03-25T23:46:48.059Z,1.37
2023-03-25T23:49:38.296Z,1.27
2023-03-25T23:52:24.740Z,1.50
2023-03-25T23:55:12.312Z,1.07
2023-03-25T23:57:58.277Z,1.30
